Time;durP1;ratioP1;P1;durP2;ratioP2;P2;SDS_P1;SDS_P2;PMS_P1;PMS_P2;Temp;Humidity;BMP_temperature;BMP_pressure;BME280_temperature;BME280_humidity;BME280_pressure;Samples;Min_cycle;Max_cycle;Signal;HPM_P1;HPM_P2
2021/01/30 00:00:46;;;;;;;4.47;0.75;;;6.30;82.30;;;4.65;81.39;94526.84;5058258;28;20047;-69
2021/01/30 00:03:12;;;;;;;2.75;0.60;;;6.30;82.00;;;4.68;81.74;94526.47;5061034;28;20087;-69
2021/01/30 00:05:38;;;;;;;1.90;0.68;;;6.40;81.90;;;4.70;81.21;94528.88;5060325;28;20047;-69
2021/01/30 00:08:05;;;;;;;1.60;0.77;;;6.40;82.10;;;4.70;81.48;94527.09;5058856;28;20377;-68
2021/01/30 00:10:31;;;;;;;1.05;0.68;;;6.30;82.60;;;4.70;81.89;94519.28;5047693;28;20044;-69
2021/01/30 00:12:56;;;;;;;1.58;0.55;;;6.30;82.90;;;4.70;82.17;94524.47;5031697;28;20033;-69
2021/01/30 00:15:24;;;;;;;3.85;0.70;;;6.30;83.60;;;4.69;82.29;94530.69;5028928;28;20032;-68
2021/01/30 00:17:50;;;;;;;2.55;0.75;;;6.30;83.30;;;4.70;82.33;94524.47;5040936;28;20037;-70
2021/01/30 00:20:29;;;;;;;2.35;0.68;;;6.40;83.30;;;4.71;82.48;94518.28;5047153;28;20041;-69
2021/01/30 00:22:55;;;;;;;1.77;0.70;;;6.40;83.20;;;4.70;81.89;94529.69;5060471;28;20040;-69
2021/01/30 00:25:24;;;;;;;1.73;0.70;;;6.30;83.40;;;4.71;81.70;94531.28;5058146;28;20140;-69
2021/01/30 00:27:49;;;;;;;2.45;0.70;;;6.40;82.90;;;4.72;82.58;94535.50;5031211;28;20037;-70
2021/01/30 00:30:18;;;;;;;2.72;0.52;;;6.30;83.20;;;4.72;82.92;94535.50;5043853;28;20582;-70
2021/01/30 00:32:43;;;;;;;1.42;0.80;;;6.40;83.40;;;4.75;82.51;94535.16;5053461;28;20032;-70
2021/01/30 00:35:10;;;;;;;1.63;0.75;;;6.40;83.70;;;4.76;82.41;94543.75;5062010;28;20040;-70
2021/01/30 00:37:36;;;;;;;3.42;0.80;;;6.40;83.80;;;4.74;82.58;94541.31;5066381;28;20110;-70
2021/01/30 00:40:03;;;;;;;5.45;0.80;;;6.40;84.30;;;4.76;83.07;94539.38;5059153;28;20525;-69
2021/01/30 00:42:28;;;;;;;1.65;0.80;;;6.40;84.30;;;4.76;82.46;94538.56;5051865;28;20032;-69
2021/01/30 00:44:54;;;;;;;2.60;0.90;;;6.40;84.20;;;4.74;83.29;94541.31;5070340;28;20029;-69
2021/01/30 00:47:21;;;;;;;1.27;0.68;;;6.40;84.20;;;4.72;82.86;94543.31;5051764;28;20122;-69
2021/01/30 00:49:47;;;;;;;1.80;0.95;;;6.40;84.70;;;4.72;83.16;94535.50;5074106;28;20058;-69
2021/01/30 00:52:13;;;;;;;1.88;0.85;;;6.40;84.70;;;4.72;83.34;94538.09;5086006;28;20032;-71
2021/01/30 00:54:40;;;;;;;2.22;0.90;;;6.30;85.20;;;4.72;83.53;94535.50;5060808;28;20037;-70
2021/01/30 00:57:05;;;;;;;2.72;0.77;;;6.30;85.20;;;4.70;83.42;94539.28;5048554;28;20038;-69
2021/01/30 00:59:31;;;;;;;2.67;0.90;;;6.30;85.40;;;4.70;83.69;94555.72;5057642;28;20075;-69
2021/01/30 01:01:57;;;;;;;3.40;0.90;;;6.30;85.30;;;4.70;83.83;94540.09;5063857;28;20036;-68
2021/01/30 01:04:22;;;;;;;4.63;1.05;;;6.30;85.10;;;4.71;83.91;94559.13;5052136;28;20651;-68
2021/01/30 01:06:49;;;;;;;3.38;0.90;;;6.40;85.50;;;4.71;84.04;94554.72;5055585;28;20037;-69
2021/01/30 01:09:15;;;;;;;4.90;1.00;;;6.40;85.40;;;4.72;83.23;94556.34;5034978;28;20062;-70
2021/01/30 01:11:42;;;;;;;3.72;0.70;;;6.30;85.20;;;4.73;83.48;94565.75;5049126;28;20041;-69
2021/01/30 01:14:08;;;;;;;2.60;0.70;;;6.40;85.10;;;4.76;83.66;94562.00;5016921;28;20083;-68
2021/01/30 01:16:34;;;;;;;2.25;0.70;;;6.40;84.80;;;4.75;83.69;94558.59;5065738;28;20830;-69
2021/01/30 01:19:00;;;;;;;1.45;0.70;;;6.40;84.90;;;4.77;84.03;94568.81;5057806;28;20612;-69
2021/01/30 01:21:25;;;;;;;2.00;0.90;;;6.50;84.20;;;4.79;83.49;94575.44;5069932;28;20068;-68
2021/01/30 01:23:51;;;;;;;3.42;0.85;;;6.50;84.40;;;4.81;83.77;94573.44;5068041;28;20040;-69
2021/01/30 01:26:17;;;;;;;3.28;0.80;;;6.60;83.80;;;4.83;83.47;94565.44;5061129;28;20500;-68
2021/01/30 01:28:43;;;;;;;3.03;0.63;;;6.50;83.70;;;4.85;83.96;94573.88;5018448;28;20048;-69
2021/01/30 01:31:10;;;;;;;1.98;0.60;;;6.50;83.80;;;4.86;83.39;94584.09;5064086;28;20036;-69
2021/01/30 01:33:36;;;;;;;1.55;0.60;;;6.50;83.50;;;4.89;83.05;94581.09;5044106;28;20131;-69
2021/01/30 01:36:02;;;;;;;1.40;0.70;;;6.50;83.20;;;4.91;83.35;94575.69;5060002;28;20094;-68
2021/01/30 01:38:28;;;;;;;2.05;0.60;;;6.60;83.20;;;4.93;83.28;94581.53;5061967;28;20032;-68
2021/01/30 01:40:53;;;;;;;1.92;0.60;;;6.60;82.90;;;4.97;83.46;94576.72;5039368;28;20119;-69
2021/01/30 01:43:25;;;;;;;3.15;0.82;;;6.60;82.30;;;4.98;83.17;94586.97;5056462;28;20489;-69
2021/01/30 01:46:08;;;;;;;1.73;0.60;;;6.60;82.40;;;5.03;83.28;94596.81;5039872;28;20111;-69
2021/01/30 01:48:35;;;;;;;1.33;0.55;;;6.60;82.20;;;5.04;82.40;94588.00;5059233;28;20044;-70
2021/01/30 01:51:03;;;;;;;0.47;0.30;;;6.70;82.00;;;5.06;82.71;94588.63;5048874;28;20052;-69
2021/01/30 01:53:33;;;;;;;0.47;0.30;;;6.70;81.50;;;5.11;81.86;94596.66;5050788;28;20559;-69
2021/01/30 01:56:06;;;;;;;2.30;0.60;;;6.70;80.60;;;5.14;81.37;94604.09;5033576;28;20044;-68
2021/01/30 01:58:34;;;;;;;1.98;0.52;;;6.80;80.40;;;5.16;81.38;94597.69;5051323;28;20044;-69
2021/01/30 02:01:00;;;;;;;0.82;0.20;;;6.80;80.30;;;5.15;82.03;94597.88;5045809;28;20032;-69
2021/01/30 02:03:26;;;;;;;2.55;0.73;;;6.80;80.50;;;5.19;81.83;94601.72;5034329;28;20418;-69
2021/01/30 02:05:51;;;;;;;0.70;0.30;;;6.80;80.40;;;5.21;81.16;94604.97;5023840;28;20029;-70
2021/01/30 02:08:20;;;;;;;1.23;0.40;;;6.90;80.20;;;5.21;81.33;94597.13;5064521;28;20039;-69
2021/01/30 02:10:48;;;;;;;0.82;0.40;;;6.90;79.70;;;5.21;80.56;94604.97;5041553;28;20025;-69
2021/01/30 02:13:25;;;;;;;1.17;0.60;;;6.80;79.20;;;5.20;80.27;94611.13;5067047;28;20032;-69
2021/01/30 02:15:56;;;;;;;1.02;0.30;;;6.70;78.90;;;5.17;80.23;94609.72;5065343;28;20036;-69
2021/01/30 02:18:50;;;;;;;0.93;0.32;;;6.70;78.40;;;5.17;79.32;94614.94;5034157;28;20028;-69
2021/01/30 02:22:16;;;;;;;0.98;0.30;;;6.70;78.50;;;5.14;78.92;94614.53;5060405;28;20029;-69
2021/01/30 02:25:37;;;;;;;1.40;0.28;;;6.70;78.20;;;5.11;79.20;94612.31;5047528;28;20059;-69
2021/01/30 02:28:40;;;;;;;0.95;0.30;;;6.70;78.10;;;5.05;78.90;94621.69;5048534;28;20041;-68
2021/01/30 02:31:30;;;;;;;0.73;0.20;;;6.60;78.20;;;4.98;79.31;94620.03;5012324;28;20033;-69
2021/01/30 02:34:36;;;;;;;0.38;0.25;;;6.50;78.70;;;4.95;79.94;94625.63;5057210;28;20046;-67
2021/01/30 02:37:09;;;;;;;0.20;0.20;;;6.60;79.00;;;4.91;80.20;94626.00;5048607;28;20049;-69
2021/01/30 02:39:43;;;;;;;0.77;0.20;;;6.50;79.90;;;4.87;80.70;94619.56;5024075;28;20040;-69
2021/01/30 02:42:25;;;;;;;1.17;0.30;;;6.40;80.20;;;4.84;81.22;94619.16;5062480;28;20707;-68
2021/01/30 02:44:56;;;;;;;0.45;0.22;;;6.40;80.50;;;4.81;80.52;94619.53;5030273;28;20040;-69
2021/01/30 02:47:22;;;;;;;0.68;0.20;;;6.40;80.50;;;4.78;81.13;94615.50;5030605;28;20039;-69
2021/01/30 02:49:53;;;;;;;0.90;0.32;;;6.40;80.80;;;4.78;81.25;94619.91;5044433;28;20508;-68
2021/01/30 02:52:22;;;;;;;;;;;6.40;80.60;;;4.75;80.79;94610.69;5037142;28;20029;-68
2021/01/30 02:54:48;;;;;;;0.60;0.30;;;6.40;80.20;;;4.74;81.09;94623.88;5054626;28;20405;-69
2021/01/30 02:57:14;;;;;;;0.38;0.20;;;6.40;80.30;;;4.73;80.79;94623.06;5046710;28;20123;-70
2021/01/30 02:59:45;;;;;;;1.52;0.22;;;6.30;80.30;;;4.73;80.83;94623.06;5028085;28;20031;-69
2021/01/30 03:02:10;;;;;;;2.05;0.20;;;6.40;80.00;;;4.73;80.40;94638.69;5038127;28;20455;-69
2021/01/30 03:04:37;;;;;;;0.68;0.30;;;6.40;80.00;;;4.72;80.19;94620.66;5046781;28;20028;-70
2021/01/30 03:08:15;;;;;;;3.05;0.40;;;6.40;79.70;;;4.75;80.39;94631.50;5025381;28;20124;-69
2021/01/30 03:11:13;;;;;;;2.58;0.45;;;6.40;79.90;;;4.76;81.07;94609.69;4975251;28;20034;-69
2021/01/30 03:13:56;;;;;;;0.68;0.30;;;6.40;79.70;;;4.77;80.91;94613.91;4972182;28;20058;-69
2021/01/30 03:16:25;;;;;;;1.27;0.35;;;6.40;79.50;;;4.80;80.41;94612.72;5043152;28;20769;-69
2021/01/30 03:19:00;;;;;;;0.80;0.30;;;6.50;79.40;;;4.82;80.96;94618.53;5065291;28;20068;-69
2021/01/30 03:21:26;;;;;;;0.80;0.30;;;6.50;79.60;;;4.83;80.11;94618.34;5023442;28;20079;-69
2021/01/30 03:23:51;;;;;;;0.98;0.40;;;6.60;79.30;;;4.84;80.62;94619.94;5022237;28;20502;-69
2021/01/30 03:26:21;;;;;;;0.52;0.25;;;6.50;79.50;;;4.85;80.11;94620.75;5066142;28;20715;-68
2021/01/30 03:28:47;;;;;;;0.30;0.20;;;6.50;79.50;;;4.86;80.61;94604.13;5031675;28;20066;-69
2021/01/30 03:31:13;;;;;;;0.93;0.30;;;6.50;79.60;;;4.84;80.17;94630.38;5025037;28;20408;-68
2021/01/30 03:33:39;;;;;;;0.70;0.20;;;6.40;79.90;;;4.82;80.92;94619.34;5047337;28;20033;-69
2021/01/30 03:36:05;;;;;;;0.63;0.30;;;6.30;80.80;;;4.79;80.82;94622.31;5055139;28;20052;-68
2021/01/30 03:38:30;;;;;;;1.55;0.30;;;6.30;81.70;;;4.76;81.35;94617.50;5065799;28;20025;-69
2021/01/30 03:40:57;;;;;;;2.00;0.50;;;6.30;82.60;;;4.70;81.19;94620.03;5048391;28;20060;-69
2021/01/30 03:43:23;;;;;;;2.38;0.40;;;6.20;83.60;;;4.68;81.53;94620.22;5047587;28;20171;-68
2021/01/30 03:45:48;;;;;;;2.95;0.40;;;6.20;83.50;;;4.67;81.90;94628.22;5061314;28;20139;-69
2021/01/30 03:48:14;;;;;;;2.47;0.60;;;6.20;83.70;;;4.65;81.25;94641.44;5064843;28;20561;-68
2021/01/30 03:50:40;;;;;;;2.90;0.60;;;6.20;83.60;;;4.65;82.43;94641.44;5065793;28;20098;-69
2021/01/30 03:53:07;;;;;;;0.80;0.43;;;6.30;83.70;;;4.64;82.30;94639.81;5065905;28;20109;-69
2021/01/30 03:55:34;;;;;;;0.77;0.30;;;6.30;83.90;;;4.63;81.83;94632.19;5054260;28;20029;-69
2021/01/30 03:57:59;;;;;;;0.95;0.30;;;6.30;83.80;;;4.63;82.22;94634.81;5059630;28;20629;-68
2021/01/30 04:00:26;;;;;;;1.30;0.40;;;6.30;83.60;;;4.63;82.36;94640.81;5064484;28;20036;-69
2021/01/30 04:02:51;;;;;;;1.10;0.50;;;6.30;83.30;;;4.62;82.78;94636.59;5053191;28;20045;-69
2021/01/30 04:05:22;;;;;;;2.33;0.30;;;6.40;83.20;;;4.63;82.49;94632.19;5035215;28;20040;-68
2021/01/30 04:07:50;;;;;;;0.50;0.30;;;6.40;82.90;;;4.64;82.23;94633.81;5029311;28;20041;-68
2021/01/30 04:10:21;;;;;;;1.77;0.30;;;6.40;82.70;;;4.64;82.75;94629.41;5047017;28;20043;-68
2021/01/30 04:12:47;;;;;;;2.72;0.57;;;6.40;82.80;;;4.66;82.52;94632.63;5052076;28;20036;-68
2021/01/30 04:15:16;;;;;;;1.67;0.40;;;6.40;82.60;;;4.70;82.29;94633.84;5068371;28;20064;-69
2021/01/30 04:17:41;;;;;;;3.92;0.50;;;6.50;82.30;;;4.71;81.83;94627.66;5069106;28;20037;-69
2021/01/30 04:20:08;;;;;;;1.42;0.30;;;6.50;82.00;;;4.72;82.39;94623.25;5069327;28;20113;-68
2021/01/30 04:22:34;;;;;;;3.15;0.50;;;6.40;81.50;;;4.73;82.16;94619.66;5067243;28;20680;-68
2021/01/30 04:24:59;;;;;;;3.20;0.43;;;6.40;81.70;;;4.73;81.59;94620.47;5051577;28;20037;-68
2021/01/30 04:27:25;;;;;;;2.25;0.40;;;6.40;81.70;;;4.74;81.71;94619.47;5070244;28;20090;-69
2021/01/30 04:29:51;;;;;;;2.30;0.60;;;6.40;81.40;;;4.76;81.70;94609.69;5062649;28;20044;-69
2021/01/30 04:32:16;;;;;;;2.10;0.50;;;6.40;81.20;;;4.77;81.70;94607.88;5066448;28;20103;-69
2021/01/30 04:34:42;;;;;;;1.83;0.50;;;6.40;81.60;;;4.73;82.37;94597.00;5065720;28;20029;-69
2021/01/30 04:37:08;;;;;;;2.92;0.60;;;6.40;81.20;;;4.79;81.72;94606.69;5034347;28;20390;-69
2021/01/30 04:39:34;;;;;;;2.58;0.65;;;6.40;81.70;;;4.80;82.14;94608.31;5067148;28;20110;-67
2021/01/30 04:42:13;;;;;;;2.00;0.45;;;6.50;81.80;;;4.81;81.97;94598.69;5061940;28;20064;-63
2021/01/30 04:45:01;;;;;;;3.10;0.70;;;6.40;82.00;;;4.79;82.26;94604.09;5034056;28;20435;-64
2021/01/30 04:47:48;;;;;;;2.25;0.40;;;6.40;82.00;;;4.79;81.82;94596.28;5017336;28;20045;-64
2021/01/30 04:50:40;;;;;;;2.20;0.55;;;6.50;81.90;;;4.78;82.54;94599.88;5056630;28;20044;-68
2021/01/30 04:53:52;;;;;;;4.20;0.57;;;6.50;81.80;;;4.76;81.98;94607.06;5047414;28;20078;-70
2021/01/30 04:56:53;;;;;;;4.25;0.90;;;6.40;81.30;;;4.76;82.06;94609.69;5045019;28;20082;-68
2021/01/30 04:59:39;;;;;;;3.10;0.80;;;6.40;81.20;;;4.77;81.29;94598.28;5035617;28;20097;-69
2021/01/30 05:02:20;;;;;;;3.60;0.75;;;6.40;80.80;;;4.75;81.41;94596.81;5069042;28;20040;-68
2021/01/30 05:04:48;;;;;;;5.53;0.50;;;6.40;80.60;;;4.76;81.17;94596.66;5037373;28;20033;-68
2021/01/30 05:07:42;;;;;;;3.08;0.70;;;6.40;80.30;;;4.73;81.73;94591.81;5051313;28;20499;-68
2021/01/30 05:10:37;;;;;;;4.80;0.80;;;6.30;80.30;;;4.71;80.87;94596.41;5053839;28;20093;-69
2021/01/30 05:13:15;;;;;;;4.38;0.77;;;6.30;80.40;;;4.71;80.91;94593.00;5038095;28;20082;-70
2021/01/30 05:16:03;;;;;;;4.70;0.63;;;6.30;80.10;;;4.70;81.58;94592.19;5063268;28;20044;-68
2021/01/30 05:18:44;;;;;;;4.45;0.70;;;6.40;80.20;;;4.68;81.47;94591.56;5059779;28;20577;-69
2021/01/30 05:21:16;;;;;;;;;;;6.40;80.20;;;4.66;80.74;94585.75;5052254;28;20094;-69
2021/01/30 05:23:42;;;;;;;;;;;6.30;80.00;;;4.65;80.91;94578.94;5051668;28;19912;-69
2021/01/30 05:27:04;;;;;;;3.92;0.60;;;6.30;79.70;;;4.63;80.63;94585.34;5048295;28;19917;-68
2021/01/30 05:29:47;;;;;;;2.65;0.60;;;6.30;79.60;;;4.59;80.42;94569.28;5037688;28;20041;-68
2021/01/30 05:32:45;;;;;;;5.72;0.60;;;6.30;79.40;;;4.60;80.75;94556.06;5024753;28;20044;-69
2021/01/30 05:35:40;;;;;;;7.38;0.75;;;6.30;79.10;;;4.60;80.30;94560.47;5043267;28;20037;-69
2021/01/30 05:38:13;;;;;;;6.18;0.82;;;6.30;79.00;;;4.55;80.19;94540.22;5064026;28;20168;-68
2021/01/30 05:40:44;;;;;;;10.57;0.95;;;6.20;78.70;;;4.50;79.77;94546.97;5032538;28;20408;-71
2021/01/30 05:43:30;;;;;;;8.77;1.25;;;6.20;78.50;;;4.50;79.67;94562.59;5051666;28;20040;-71
2021/01/30 05:45:57;;;;;;;3.88;0.68;;;6.20;78.50;;;4.49;80.11;94563.59;5031351;28;20586;-70
2021/01/30 05:48:35;;;;;;;4.35;0.80;;;6.20;78.50;;;4.46;80.36;94558.75;5032723;28;20086;-72
2021/01/30 05:51:27;;;;;;;4.57;0.60;;;6.10;78.60;;;4.42;80.15;94554.94;5050089;28;20098;-71
2021/01/30 05:53:53;;;;;;;2.72;0.90;;;6.10;78.70;;;4.41;80.20;94548.13;5067264;28;20056;-71
2021/01/30 05:56:19;;;;;;;5.80;1.13;;;6.10;78.60;;;4.44;80.09;94545.13;5067248;28;20384;-71
2021/01/30 05:58:46;;;;;;;6.97;0.70;;;6.20;78.50;;;4.41;80.24;94529.91;5068461;28;20400;-73
2021/01/30 06:01:24;;;;;;;5.38;0.60;;;6.10;78.60;;;4.38;79.60;94536.28;5032041;28;20089;-72
2021/01/30 06:04:05;;;;;;;6.65;1.20;;;6.10;78.60;;;4.41;80.23;94540.31;5038932;28;20155;-72
2021/01/30 06:06:41;;;;;;;4.05;0.63;;;6.10;78.70;;;4.42;80.47;94536.72;5050291;28;20028;-72
2021/01/30 06:09:35;;;;;;;5.05;0.70;;;6.10;79.00;;;4.41;79.95;94550.72;5050827;28;20098;-72
2021/01/30 06:12:02;;;;;;;5.10;0.77;;;6.10;79.20;;;4.40;80.32;94541.31;5066722;28;20064;-72
2021/01/30 06:14:36;;;;;;;3.30;0.60;;;6.10;79.50;;;4.41;80.52;94535.91;5034270;28;20373;-72
2021/01/30 06:17:03;;;;;;;6.63;1.00;;;6.10;79.60;;;4.42;80.65;94536.72;5031828;28;20677;-72
2021/01/30 06:19:33;;;;;;;5.72;0.82;;;6.10;79.50;;;4.43;80.63;94536.53;5014116;28;20500;-72
2021/01/30 06:22:22;;;;;;;9.88;3.58;;;6.10;79.60;;;4.44;80.95;94540.72;5030012;28;20504;-71
2021/01/30 06:24:49;;;;;;;9.77;2.30;;;6.10;79.70;;;4.46;80.39;94540.53;5046914;28;20764;-71
2021/01/30 06:27:40;;;;;;;5.88;0.75;;;6.20;79.90;;;4.47;80.87;94544.75;5046634;28;20037;-72
2021/01/30 06:30:07;;;;;;;4.00;0.90;;;6.20;79.60;;;4.50;80.71;94549.56;5033544;28;20116;-72
2021/01/30 06:32:45;;;;;;;4.88;0.95;;;6.20;79.60;;;4.52;80.17;94534.56;5030150;28;20197;-73
2021/01/30 06:35:18;;;;;;;3.55;0.90;;;6.20;79.60;;;4.51;80.78;94535.56;5047391;28;20248;-72
2021/01/30 06:37:50;;;;;;;5.28;0.93;;;6.10;79.60;;;4.55;80.67;94526.41;5046031;28;20037;-72
2021/01/30 06:40:26;;;;;;;3.63;0.68;;;6.30;79.40;;;4.56;80.60;94533.22;5015548;28;20071;-72
2021/01/30 06:42:54;;;;;;;3.10;0.70;;;6.30;79.20;;;4.60;80.68;94529.22;5058441;28;20266;-72
2021/01/30 06:45:34;;;;;;;7.72;0.90;;;6.40;79.10;;;4.62;80.20;94532.44;5050084;28;20036;-72
2021/01/30 06:48:00;;;;;;;10.75;1.70;;;6.40;79.00;;;4.64;80.44;94534.84;5050752;28;20060;-72
2021/01/30 06:50:42;;;;;;;6.38;0.95;;;6.30;79.20;;;4.65;80.42;94533.88;5026531;28;20460;-72
2021/01/30 06:53:32;;;;;;;4.63;0.80;;;6.30;79.30;;;4.68;79.93;94536.88;5061838;28;20036;-71
2021/01/30 06:56:18;;;;;;;3.28;0.77;;;6.40;79.00;;;4.70;80.18;94527.09;5063497;28;20767;-71
2021/01/30 06:58:44;;;;;;;4.18;0.88;;;6.40;79.00;;;4.72;80.33;94540.72;5015580;28;20029;-71
2021/01/30 07:01:21;;;;;;;3.30;0.70;;;6.40;78.90;;;4.73;80.36;94539.72;5029819;28;20086;-71
2021/01/30 07:04:08;;;;;;;4.18;1.10;;;6.40;78.40;;;4.78;80.17;94542.56;5023191;28;20112;-71
2021/01/30 07:07:18;;;;;;;4.80;1.08;;;6.50;78.40;;;4.79;79.49;94538.97;5049222;28;20551;-67
2021/01/30 07:10:20;;;;;;;7.13;1.52;;;6.50;78.10;;;4.82;79.69;94522.97;5054719;28;20144;-72
2021/01/30 07:13:16;;;;;;;5.68;0.90;;;6.50;78.10;;;4.83;79.22;94511.53;5046415;28;20056;-69
2021/01/30 07:15:47;;;;;;;5.07;1.23;;;6.50;77.90;;;4.86;79.24;94518.16;5061220;28;20059;-67
2021/01/30 07:18:31;;;;;;;3.35;0.60;;;6.60;77.60;;;4.88;79.11;94522.19;5024977;28;20047;-67
2021/01/30 07:21:11;;;;;;;4.80;0.95;;;6.60;77.60;;;4.90;79.53;94520.19;5029018;28;20765;-72
2021/01/30 07:24:07;;;;;;;3.63;0.75;;;6.60;77.60;;;4.90;79.30;94522.78;5056278;28;20071;-69
2021/01/30 07:26:46;;;;;;;4.07;0.77;;;6.60;77.40;;;4.95;78.61;94521.41;5051828;28;20032;-64
2021/01/30 07:29:28;;;;;;;7.18;2.03;;;6.70;77.60;;;4.97;78.95;94519.41;5035880;28;20041;-67
2021/01/30 07:32:07;;;;;;;6.60;1.67;;;6.80;77.10;;;5.00;78.74;94529.47;5045581;28;20033;-71
2021/01/30 07:34:51;;;;;;;7.00;1.70;;;6.80;77.00;;;5.01;79.02;94526.66;5045051;28;20120;-71
2021/01/30 07:37:27;;;;;;;9.10;2.40;;;6.80;76.90;;;5.03;78.88;94518.66;5046942;28;20119;-70
2021/01/30 07:40:00;;;;;;;6.35;1.35;;;6.80;76.90;;;5.07;79.40;94515.47;5013813;28;20029;-71
2021/01/30 07:42:37;;;;;;;11.27;2.65;;;6.80;76.80;;;5.08;79.27;94516.28;5013647;28;20511;-68
2021/01/30 07:45:21;;;;;;;12.38;4.30;;;6.90;76.80;;;5.12;79.07;94523.50;5047515;28;20411;-76
2021/01/30 07:48:23;;;;;;;7.57;1.52;;;7.00;76.80;;;5.15;78.46;94511.88;5067975;28;20040;-71
2021/01/30 07:50:53;;;;;;;3.92;1.13;;;7.00;76.60;;;5.17;79.06;94512.50;5060975;28;20049;-71
2021/01/30 07:53:26;;;;;;;9.43;2.15;;;7.00;76.60;;;5.19;79.08;94505.28;5033147;28;20033;-71
2021/01/30 07:55:57;;;;;;;7.18;2.20;;;7.00;76.40;;;5.22;78.32;94507.53;5064393;28;20045;-72
2021/01/30 07:58:38;;;;;;;6.50;2.00;;;7.10;76.30;;;5.25;79.17;94512.34;5069095;28;20036;-72
2021/01/30 08:01:31;;;;;;;6.88;1.80;;;7.00;76.20;;;5.24;77.95;94505.53;5054543;28;20166;-71
2021/01/30 08:04:27;;;;;;;8.55;2.28;;;7.00;76.40;;;5.26;78.71;94505.31;5055411;28;20029;-71
2021/01/30 08:07:43;;;;;;;7.65;1.25;;;7.00;76.40;;;5.27;77.86;94499.91;5065163;28;20039;-72
2021/01/30 08:10:35;;;;;;;8.52;1.70;;;7.10;76.40;;;5.30;78.29;94494.31;4996316;28;20087;-71
2021/01/30 08:13:22;;;;;;;12.20;3.15;;;7.10;76.00;;;5.33;78.32;94493.91;4992933;28;20042;-71
2021/01/30 08:16:14;;;;;;;10.00;2.92;;;7.10;76.10;;;5.34;78.86;94485.09;5021859;28;20045;-70
2021/01/30 08:18:42;;;;;;;14.82;2.28;;;7.20;76.50;;;5.36;78.67;94483.09;5049841;28;20147;-72
2021/01/30 08:21:42;;;;;;;8.35;2.45;;;7.10;75.60;;;5.38;78.36;94483.69;5039680;28;20029;-71
2021/01/30 08:24:53;;;;;;;24.40;10.80;;;7.20;75.60;;;5.42;78.03;94489.31;5055450;28;20040;-71
2021/01/30 08:27:43;;;;;;;7.93;2.60;;;7.20;75.20;;;5.44;78.01;94484.72;5056591;28;20040;-71
2021/01/30 08:30:20;;;;;;;8.45;1.80;;;7.20;75.60;;;5.44;77.73;94480.31;5025884;28;20029;-71
2021/01/30 08:33:01;;;;;;;7.82;1.85;;;7.20;75.10;;;5.45;77.13;94487.13;5032996;28;20078;-71
2021/01/30 08:35:26;;;;;;;11.50;3.40;;;7.20;75.40;;;5.47;77.79;94479.94;5026661;28;20119;-71
2021/01/30 08:37:59;;;;;;;7.20;1.70;;;7.30;74.90;;;5.50;77.21;94479.53;5062352;28;20096;-71
2021/01/30 08:40:47;;;;;;;8.48;1.77;;;7.40;74.80;;;5.51;76.75;94481.13;5048661;28;20025;-72
2021/01/30 08:43:40;;;;;;;8.90;1.83;;;7.30;74.40;;;5.56;77.62;94474.50;5063980;28;20029;-69
2021/01/30 08:46:32;;;;;;;6.78;1.40;;;7.40;74.30;;;5.62;77.51;94476.31;5064120;28;20036;-71
2021/01/30 08:49:18;;;;;;;4.97;1.05;;;7.60;74.10;;;5.68;77.13;94465.13;5042986;28;20655;-70
2021/01/30 08:52:08;;;;;;;9.98;1.38;;;7.60;74.00;;;5.70;77.25;94473.56;5074681;28;20041;-70
2021/01/30 08:54:41;;;;;;;9.70;2.28;;;7.60;73.50;;;5.77;77.52;94477.75;5035139;28;20137;-67
2021/01/30 08:57:30;;;;;;;13.75;4.13;;;7.70;73.60;;;5.83;76.42;94478.75;5035112;28;20524;-69
2021/01/30 08:59:56;;;;;;;8.73;2.30;;;7.60;73.50;;;5.87;77.14;94479.16;5052613;28;20059;-66
2021/01/30 09:02:28;;;;;;;7.60;1.95;;;7.80;73.30;;;5.91;76.26;94476.00;5045648;28;20035;-66
2021/01/30 09:05:12;;;;;;;9.60;1.60;;;7.80;73.10;;;5.93;75.94;94481.03;5049303;28;20041;-69
2021/01/30 09:07:57;;;;;;;6.43;1.30;;;7.80;72.80;;;5.92;75.62;94472.41;5060061;28;20036;-70
2021/01/30 09:10:22;;;;;;;9.70;1.95;;;7.70;73.00;;;5.97;77.50;94477.00;5064192;28;20041;-69
2021/01/30 09:13:04;;;;;;;7.55;1.40;;;7.90;72.60;;;5.99;76.33;94473.19;5062736;28;20116;-70
2021/01/30 09:15:41;;;;;;;9.02;1.85;;;7.80;72.80;;;6.01;75.27;94481.63;5068077;28;20037;-69
2021/01/30 09:18:22;;;;;;;10.32;2.30;;;7.90;72.50;;;6.05;75.81;94477.59;5068113;28;20538;-69
2021/01/30 09:21:24;;;;;;;7.32;2.05;;;8.00;72.80;;;6.08;75.43;94479.81;5068786;28;20032;-69
2021/01/30 09:24:30;;;;;;;6.20;1.30;;;8.00;72.50;;;6.10;76.05;94469.97;5042968;28;20040;-69
2021/01/30 09:27:05;;;;;;;9.60;1.42;;;8.10;72.10;;;6.09;75.42;94473.59;5067980;28;20120;-68
2021/01/30 09:29:47;;;;;;;4.88;1.30;;;7.90;72.30;;;6.12;75.73;94477.63;5067468;28;20037;-70
2021/01/30 09:32:15;;;;;;;10.65;1.67;;;8.00;72.50;;;6.12;76.04;94472.41;5050106;28;20041;-70
2021/01/30 09:34:47;;;;;;;8.60;2.05;;;8.10;71.80;;;6.16;75.90;94483.25;5043262;28;20139;-69
2021/01/30 09:37:42;;;;;;;5.05;1.60;;;8.10;71.80;;;6.19;75.71;94482.84;5033193;28;20421;-70
2021/01/30 09:40:21;;;;;;;11.45;1.80;;;8.10;71.70;;;6.27;74.60;94480.00;5046873;28;20040;-68
2021/01/30 09:43:04;;;;;;;7.47;1.55;;;8.20;71.20;;;6.37;74.65;94480.44;5066229;28;20032;-70
2021/01/30 09:45:30;;;;;;;9.95;1.25;;;8.50;71.00;;;6.45;76.67;94478.41;5067021;28;20028;-70
2021/01/30 09:47:55;;;;;;;5.03;1.25;;;8.60;70.00;;;6.56;76.00;94469.13;5059319;28;20083;-67
2021/01/30 09:50:31;;;;;;;7.68;1.58;;;8.80;69.30;;;6.72;74.31;94470.50;5063812;28;20173;-66
2021/01/30 09:53:03;;;;;;;9.25;1.83;;;9.30;68.10;;;6.87;74.31;94471.06;5056201;28;20397;-69
2021/01/30 09:55:30;;;;;;;10.95;1.70;;;9.40;67.40;;;7.04;75.54;94469.63;5046618;28;20032;-69
2021/01/30 09:58:17;;;;;;;6.18;1.30;;;9.50;66.50;;;7.23;72.87;94473.16;5049202;28;20850;-69
2021/01/30 10:00:44;;;;;;;4.85;1.20;;;9.80;66.30;;;7.35;74.63;94468.06;5027195;28;20504;-70
2021/01/30 10:03:26;;;;;;;5.43;1.60;;;9.80;65.50;;;7.49;71.85;94460.97;5032136;28;20537;-70
2021/01/30 10:05:55;;;;;;;7.65;1.20;;;9.80;66.00;;;7.56;74.91;94466.97;5036516;28;20033;-67
2021/01/30 10:08:28;;;;;;;8.82;1.40;;;9.70;65.40;;;7.57;73.13;94455.47;5050544;28;20116;-67
2021/01/30 10:11:06;;;;;;;9.73;1.10;;;9.50;65.50;;;7.57;71.62;94452.88;5046301;28;20041;-69
2021/01/30 10:13:32;;;;;;;7.63;1.17;;;9.60;65.30;;;7.61;74.01;94451.44;5059768;28;20029;-71
2021/01/30 10:16:02;;;;;;;6.75;1.58;;;9.70;66.00;;;7.63;73.91;94438.94;5067329;28;20117;-71
2021/01/30 10:18:28;;;;;;;11.45;1.98;;;9.70;65.90;;;7.69;73.82;94443.31;5053823;28;20032;-72
2021/01/30 10:20:56;;;;;;;8.68;1.83;;;9.90;64.30;;;7.74;72.39;94435.66;5020071;28;20495;-72
2021/01/30 10:23:39;;;;;;;8.05;1.58;;;10.00;64.20;;;7.85;70.12;94434.16;5033482;28;20519;-72
2021/01/30 10:26:21;;;;;;;9.30;2.15;;;10.10;63.20;;;8.01;69.72;94438.06;5058645;28;20032;-71
2021/01/30 10:28:51;;;;;;;9.65;1.73;;;10.40;62.80;;;8.19;72.73;94432.91;5032991;28;20043;-71
2021/01/30 10:31:23;;;;;;;5.88;2.00;;;10.90;61.20;;;8.35;69.82;94421.88;5056384;28;20045;-71
2021/01/30 10:33:57;;;;;;;11.77;2.17;;;11.20;59.50;;;8.67;71.05;94421.78;5033676;28;20670;-72
2021/01/30 10:36:23;;;;;;;7.10;1.80;;;12.00;57.90;;;8.99;72.45;94415.34;5024579;28;20040;-71
2021/01/30 10:38:50;;;;;;;8.68;1.50;;;12.60;55.40;;;9.24;72.23;94414.44;5015146;28;20037;-70
2021/01/30 10:41:18;;;;;;;5.70;1.75;;;12.70;54.30;;;9.54;70.20;94417.09;5021495;28;20032;-71
2021/01/30 10:43:44;;;;;;;10.40;2.33;;;13.20;52.20;;;9.83;69.56;94397.88;5032867;28;20039;-70
2021/01/30 10:46:22;;;;;;;10.40;2.90;;;13.90;49.70;;;10.18;65.22;94397.91;5042325;28;20029;-70
2021/01/30 10:48:48;;;;;;;8.13;1.70;;;14.60;48.50;;;10.55;69.29;94384.56;5022724;28;20034;-70
2021/01/30 10:51:24;;;;;;;9.50;2.40;;;15.70;45.40;;;10.89;64.59;94386.34;5026906;28;20125;-70
2021/01/30 10:53:50;;;;;;;19.38;11.02;;;15.90;43.90;;;11.21;68.07;94385.91;5020873;28;20492;-71
2021/01/30 10:56:23;;;;;;;10.25;2.10;;;17.00;41.50;;;11.63;62.18;94387.19;5032456;28;20499;-71
2021/01/30 10:58:50;;;;;;;6.53;1.70;;;17.50;39.20;;;11.99;66.63;94377.28;5045544;28;20045;-71
2021/01/30 11:01:19;;;;;;;4.50;1.10;;;18.30;37.60;;;12.41;65.53;94374.22;5039660;28;20124;-71
2021/01/30 11:03:51;;;;;;;6.28;1.60;;;19.10;35.20;;;12.69;62.00;94374.09;5057482;28;20033;-71
2021/01/30 11:06:40;;;;;;;4.03;1.10;;;18.60;36.40;;;13.01;56.54;94368.94;5056092;28;20474;-71
2021/01/30 11:09:38;;;;;;;6.60;1.63;;;18.40;36.80;;;13.26;55.13;94368.47;5065523;28;20128;-72